Time;durP1;ratioP1;P1;durP2;ratioP2;P2;SDS_P1;SDS_P2;PMS_P1;PMS_P2;Temp;Humidity;BMP_temperature;BMP_pressure;BME280_temperature;BME280_humidity;BME280_pressure;Samples;Min_cycle;Max_cycle;Signal;HPM_P1;HPM_P2
2021/06/24 00:01:28;;;;;;;9.55;5.10;;;13.10;87.50;;;;;;4982618;28;20046;-55
2021/06/24 00:03:54;;;;;;;8.48;4.95;;;13.10;87.80;;;;;;4993840;28;20045;-54
2021/06/24 00:06:20;;;;;;;10.85;5.32;;;13.10;88.10;;;;;;5000694;28;20034;-53
2021/06/24 00:08:45;;;;;;;10.80;5.25;;;13.10;88.30;;;;;;4984474;28;20411;-53
2021/06/24 00:11:11;;;;;;;9.02;5.40;;;13.10;87.80;;;;;;4993551;28;20050;-53
2021/06/24 00:13:39;;;;;;;10.85;5.18;;;13.10;87.60;;;;;;4992790;28;20038;-49
2021/06/24 00:16:07;;;;;;;11.25;5.55;;;13.10;87.60;;;;;;4992044;28;20129;-54
2021/06/24 00:18:33;;;;;;;11.30;5.78;;;13.10;87.50;;;;;;5000001;28;20069;-55
2021/06/24 00:20:59;;;;;;;9.55;5.30;;;13.00;87.70;;;;;;4992466;28;20049;-54
2021/06/24 00:23:29;;;;;;;10.70;5.65;;;13.00;87.90;;;;;;4991861;28;20279;-54
2021/06/24 00:25:55;;;;;;;11.18;5.20;;;13.00;87.80;;;;;;4993024;28;20093;-52
2021/06/24 00:28:23;;;;;;;13.20;5.57;;;13.00;88.20;;;;;;4992049;28;20046;-54
2021/06/24 00:30:51;;;;;;;12.00;6.32;;;13.00;88.00;;;;;;5007586;28;20451;-54
2021/06/24 00:33:17;;;;;;;8.07;5.72;;;13.10;88.00;;;;;;4992990;28;20056;-53
2021/06/24 00:35:44;;;;;;;7.47;5.45;;;13.10;87.80;;;;;;4991798;28;20099;-54
2021/06/24 00:38:10;;;;;;;10.77;6.05;;;13.00;88.10;;;;;;4994368;28;20042;-52
2021/06/24 00:40:38;;;;;;;10.93;5.55;;;13.00;88.30;;;;;;4993083;28;20070;-51
2021/06/24 00:43:11;;;;;;;11.63;6.07;;;13.10;87.90;;;;;;4993414;28;20050;-53
2021/06/24 00:45:38;;;;;;;10.55;6.13;;;13.00;87.90;;;;;;5007847;28;20050;-52
2021/06/24 00:48:05;;;;;;;10.57;5.63;;;13.00;88.10;;;;;;4991998;28;20055;-52
2021/06/24 00:50:31;;;;;;;10.73;6.18;;;13.00;88.20;;;;;;4992879;28;20065;-53
2021/06/24 00:52:57;;;;;;;12.23;5.75;;;13.00;88.60;;;;;;4993076;28;20050;-51
2021/06/24 00:58:20;;;;;;;8.00;5.32;;;13.00;88.60;;;;;;4985047;28;20102;-54
2021/06/24 01:00:47;;;;;;;10.02;5.60;;;13.00;89.00;;;;;;4992814;28;20100;-55
2021/06/24 01:03:14;;;;;;;9.63;5.85;;;13.00;89.10;;;;;;4993429;28;20030;-51
2021/06/24 01:05:43;;;;;;;10.23;5.60;;;13.00;89.00;;;;;;4995822;28;20125;-53
2021/06/24 01:08:10;;;;;;;10.82;5.72;;;13.00;89.00;;;;;;4994221;28;20091;-53
2021/06/24 01:10:37;;;;;;;7.82;5.28;;;12.90;89.20;;;;;;5010997;28;20269;-54
2021/06/24 01:13:04;;;;;;;8.40;5.63;;;12.90;89.30;;;;;;5011804;28;20091;-54
2021/06/24 01:15:30;;;;;;;7.60;5.07;;;13.00;89.70;;;;;;5012417;28;20037;-51
2021/06/24 01:17:58;;;;;;;10.32;5.35;;;13.00;88.90;;;;;;5012303;28;20038;-52
2021/06/24 01:20:26;;;;;;;9.00;5.53;;;12.90;89.00;;;;;;4994032;28;20057;-50
2021/06/24 01:22:53;;;;;;;11.27;5.95;;;12.90;88.70;;;;;;4977932;28;20518;-55
2021/06/24 01:25:19;;;;;;;12.07;5.20;;;12.90;88.70;;;;;;5012166;28;20050;-53
2021/06/24 01:27:45;;;;;;;10.30;5.70;;;12.90;88.50;;;;;;5011690;28;20096;-54
2021/06/24 01:30:12;;;;;;;9.15;5.70;;;12.90;88.50;;;;;;5010768;28;20470;-53
2021/06/24 01:32:38;;;;;;;11.90;5.68;;;13.00;88.10;;;;;;5011819;28;20462;-54
2021/06/24 01:35:04;;;;;;;9.63;5.60;;;13.00;87.90;;;;;;4997038;28;20112;-50
2021/06/24 01:37:30;;;;;;;10.57;5.88;;;12.90;87.50;;;;;;4994278;28;20121;-53
2021/06/24 01:39:56;;;;;;;14.13;5.97;;;12.80;88.30;;;;;;4964184;28;20105;-54
2021/06/24 01:42:21;;;;;;;10.82;5.97;;;12.80;88.20;;;;;;5011954;28;20480;-49
2021/06/24 01:44:47;;;;;;;9.80;5.85;;;12.80;88.50;;;;;;5009505;28;20556;-50
2021/06/24 01:47:13;;;;;;;12.15;6.40;;;12.80;88.90;;;;;;5011110;28;20052;-49
2021/06/24 01:49:39;;;;;;;9.20;5.88;;;12.80;88.90;;;;;;4992492;28;20133;-52
2021/06/24 01:52:06;;;;;;;8.93;6.28;;;12.80;88.90;;;;;;5011869;28;20065;-52
2021/06/24 01:54:32;;;;;;;12.55;6.60;;;12.80;88.90;;;;;;5010934;28;20042;-53
2021/06/24 01:56:58;;;;;;;10.13;6.35;;;12.70;89.10;;;;;;4993989;28;20096;-51
2021/06/24 01:59:24;;;;;;;9.10;6.60;;;12.70;89.20;;;;;;4993642;28;20057;-54
2021/06/24 02:01:49;;;;;;;14.40;6.68;;;12.70;89.50;;;;;;5011676;28;20495;-55
2021/06/24 02:04:15;;;;;;;11.25;6.72;;;12.70;89.20;;;;;;5010322;28;20054;-52
2021/06/24 02:06:40;;;;;;;11.82;6.50;;;12.70;89.40;;;;;;4993419;28;20038;-54
2021/06/24 02:09:06;;;;;;;11.40;6.40;;;12.70;89.70;;;;;;5010404;28;20112;-55
2021/06/24 02:11:32;;;;;;;13.13;6.55;;;12.70;89.30;;;;;;5011273;28;20041;-51
2021/06/24 02:13:59;;;;;;;10.68;5.85;;;12.70;89.70;;;;;;5016624;28;20069;-52
2021/06/24 02:16:25;;;;;;;12.73;6.85;;;12.60;89.30;;;;;;4961296;28;20061;-51
2021/06/24 02:18:51;;;;;;;9.15;6.50;;;12.70;89.50;;;;;;5005097;28;20046;-53
2021/06/24 02:21:16;;;;;;;10.55;6.60;;;12.70;89.10;;;;;;5010928;28;20057;-54
2021/06/24 02:23:42;;;;;;;11.15;7.20;;;12.70;88.80;;;;;;5013064;28;20030;-55
2021/06/24 02:26:08;;;;;;;10.68;6.82;;;12.70;89.10;;;;;;4996465;28;20176;-50
2021/06/24 02:28:34;;;;;;;12.23;8.25;;;12.70;89.10;;;;;;5015786;28;20137;-50
2021/06/24 02:31:00;;;;;;;11.63;7.63;;;12.60;89.80;;;;;;5013948;28;20049;-54
2021/06/24 02:33:27;;;;;;;12.27;7.78;;;12.60;89.70;;;;;;5014964;28;20403;-55
2021/06/24 02:35:58;;;;;;;13.70;7.45;;;12.60;89.80;;;;;;5013665;28;20142;-52
2021/06/24 02:38:24;;;;;;;14.65;7.53;;;12.60;90.10;;;;;;5013597;28;20100;-54
2021/06/24 02:40:51;;;;;;;13.35;7.30;;;12.50;90.20;;;;;;5014738;28;20042;-54
2021/06/24 02:43:18;;;;;;;12.32;7.82;;;12.50;90.30;;;;;;5014640;28;20042;-54
2021/06/24 02:45:44;;;;;;;10.80;8.25;;;12.50;90.20;;;;;;4996735;28;20518;-55
2021/06/24 02:48:10;;;;;;;11.95;8.35;;;12.50;90.30;;;;;;5014623;28;20042;-55
2021/06/24 02:50:45;;;;;;;12.25;7.75;;;12.50;90.20;;;;;;5013574;28;20042;-53
2021/06/24 02:53:11;;;;;;;9.75;7.55;;;12.50;90.40;;;;;;5015770;28;20053;-54
2021/06/24 02:55:37;;;;;;;11.75;7.70;;;12.50;90.40;;;;;;5015461;28;20038;-50
2021/06/24 02:58:03;;;;;;;12.93;7.30;;;12.40;90.40;;;;;;4996945;28;20038;-51
2021/06/24 03:00:28;;;;;;;9.57;7.60;;;12.40;90.50;;;;;;5015008;28;20486;-49
2021/06/24 03:02:54;;;;;;;10.63;8.13;;;12.40;90.60;;;;;;5014250;28;20046;-52
2021/06/24 03:05:20;;;;;;;12.27;8.40;;;12.50;90.50;;;;;;4996572;28;20049;-54
2021/06/24 03:07:46;;;;;;;14.00;7.93;;;12.50;90.50;;;;;;5013348;28;20034;-50
2021/06/24 03:10:14;;;;;;;10.68;8.48;;;12.40;90.50;;;;;;5014857;28;20046;-54
2021/06/24 03:12:40;;;;;;;11.68;8.05;;;12.30;90.70;;;;;;5012683;28;20037;-53
2021/06/24 03:15:08;;;;;;;12.43;7.75;;;12.30;90.80;;;;;;5013975;28;20072;-50
2021/06/24 03:17:36;;;;;;;14.07;8.02;;;12.30;90.60;;;;;;4979722;28;20519;-49
2021/06/24 03:20:09;;;;;;;10.77;7.25;;;12.30;90.80;;;;;;5014645;28;20124;-52
2021/06/24 03:22:36;;;;;;;12.57;7.90;;;12.40;90.60;;;;;;5014059;28;20562;-52
2021/06/24 03:25:03;;;;;;;12.80;7.50;;;12.40;90.60;;;;;;5013816;28;20493;-52
2021/06/24 03:27:29;;;;;;;16.08;8.27;;;12.20;90.60;;;;;;4997088;28;20057;-53
2021/06/24 03:29:55;;;;;;;12.57;8.00;;;12.20;90.90;;;;;;5020812;28;20068;-53
2021/06/24 03:32:21;;;;;;;13.98;9.20;;;12.10;91.00;;;;;;5000731;28;20057;-51
2021/06/24 03:34:47;;;;;;;13.32;8.23;;;12.10;91.10;;;;;;4997905;28;20045;-53
2021/06/24 03:37:12;;;;;;;11.20;7.80;;;12.10;91.30;;;;;;5016070;28;20049;-53
2021/06/24 03:39:39;;;;;;;10.35;8.00;;;12.10;91.00;;;;;;5021387;28;20042;-53
2021/06/24 03:42:05;;;;;;;10.70;8.00;;;12.10;91.10;;;;;;5009010;28;20057;-53
2021/06/24 03:44:31;;;;;;;12.27;8.02;;;12.10;91.10;;;;;;5010432;28;20038;-53
2021/06/24 03:46:57;;;;;;;12.98;8.20;;;12.00;91.20;;;;;;5008511;28;20034;-52
2021/06/24 03:49:22;;;;;;;11.60;7.88;;;12.00;91.30;;;;;;5011871;28;20053;-53
2021/06/24 03:51:48;;;;;;;11.77;8.40;;;11.90;91.30;;;;;;4995650;28;20038;-51
2021/06/24 03:54:14;;;;;;;13.27;9.05;;;11.90;91.30;;;;;;5012127;28;20045;-52
2021/06/24 03:56:40;;;;;;;12.93;8.45;;;11.90;91.40;;;;;;5013609;28;20037;-50
2021/06/24 03:59:06;;;;;;;13.07;8.35;;;12.00;91.50;;;;;;5014341;28;20038;-54
2021/06/24 04:01:32;;;;;;;13.55;7.75;;;11.90;91.50;;;;;;5011765;28;20045;-51
2021/06/24 04:04:00;;;;;;;12.95;8.25;;;12.00;91.50;;;;;;5013300;28;20061;-51
2021/06/24 04:06:27;;;;;;;12.77;8.40;;;11.90;91.60;;;;;;5012776;28;20042;-53
2021/06/24 04:08:53;;;;;;;11.73;8.40;;;12.00;91.70;;;;;;4996305;28;20578;-52
2021/06/24 04:11:19;;;;;;;12.27;7.97;;;11.90;91.70;;;;;;4978650;28;20050;-53
2021/06/24 04:13:45;;;;;;;11.07;8.13;;;11.90;91.70;;;;;;5012846;28;20046;-50
2021/06/24 04:16:11;;;;;;;14.02;8.00;;;11.90;91.80;;;;;;5012613;28;20042;-52
2021/06/24 04:18:38;;;;;;;12.85;8.45;;;11.90;91.80;;;;;;5011494;28;20034;-55
2021/06/24 04:21:04;;;;;;;13.25;9.00;;;11.90;91.70;;;;;;5013144;28;20120;-54
2021/06/24 04:23:29;;;;;;;13.77;8.82;;;11.80;91.70;;;;;;5013024;28;20049;-52
2021/06/24 04:25:56;;;;;;;10.82;8.40;;;11.80;91.80;;;;;;5011679;28;20053;-52
2021/06/24 04:28:22;;;;;;;12.23;8.82;;;11.90;91.80;;;;;;5012369;28;20040;-52
2021/06/24 04:30:47;;;;;;;13.10;8.80;;;11.90;91.80;;;;;;5013987;28;20545;-52
2021/06/24 04:33:14;;;;;;;13.52;8.65;;;11.90;91.90;;;;;;4995181;28;20045;-53
2021/06/24 04:35:39;;;;;;;15.40;9.15;;;11.90;91.80;;;;;;5012107;28;20042;-52
2021/06/24 04:38:05;;;;;;;12.93;8.98;;;12.00;91.70;;;;;;5012256;28;20069;-49
2021/06/24 04:40:31;;;;;;;12.60;8.63;;;12.00;91.70;;;;;;5012966;28;20050;-49
2021/06/24 04:42:57;;;;;;;15.63;8.75;;;12.00;91.60;;;;;;5010570;28;20096;-50
2021/06/24 04:45:22;;;;;;;13.23;8.75;;;12.10;91.60;;;;;;5019194;28;20052;-52
2021/06/24 04:47:49;;;;;;;12.00;8.57;;;12.10;91.50;;;;;;5012738;28;20046;-52
2021/06/24 04:50:15;;;;;;;11.45;8.10;;;12.10;91.40;;;;;;5007111;28;20038;-52
2021/06/24 04:52:41;;;;;;;14.07;8.93;;;12.10;91.40;;;;;;5012387;28;20103;-50
2021/06/24 04:55:08;;;;;;;14.88;8.38;;;12.20;91.30;;;;;;5023584;28;20132;-52
2021/06/24 04:57:40;;;;;;;12.38;8.65;;;12.20;91.20;;;;;;4980824;28;20050;-52
2021/06/24 05:00:08;;;;;;;10.35;8.20;;;12.30;91.20;;;;;;5016299;28;20049;-53
2021/06/24 05:02:36;;;;;;;10.68;7.50;;;12.40;91.10;;;;;;5007705;28;20037;-54
2021/06/24 05:05:05;;;;;;;14.00;8.00;;;12.60;91.20;;;;;;5013733;28;20042;-50
2021/06/24 05:07:31;;;;;;;10.80;7.72;;;12.90;90.20;;;;;;5024326;28;20037;-51
2021/06/24 05:09:57;;;;;;;9.98;7.70;;;13.00;89.90;;;;;;5013287;28;20038;-54
2021/06/24 05:12:23;;;;;;;10.63;6.97;;;13.20;90.00;;;;;;5013330;28;20046;-52
2021/06/24 05:14:48;;;;;;;10.80;6.97;;;13.30;89.70;;;;;;5014322;28;20038;-50
2021/06/24 05:17:15;;;;;;;11.02;7.95;;;13.60;88.50;;;;;;5024083;28;20084;-52
2021/06/24 05:19:42;;;;;;;13.25;7.18;;;13.80;86.80;;;;;;4995265;28;20061;-54
2021/06/24 05:22:12;;;;;;;10.75;7.22;;;14.00;86.60;;;;;;5014523;28;20100;-52
2021/06/24 05:24:41;;;;;;;12.55;7.13;;;14.10;84.90;;;;;;5011770;28;20499;-51
2021/06/24 05:27:08;;;;;;;11.80;6.38;;;14.20;84.10;;;;;;5012237;28;20042;-52
2021/06/24 05:29:34;;;;;;;8.50;6.53;;;14.30;84.80;;;;;;5014849;28;20046;-50
2021/06/24 05:32:03;;;;;;;9.50;5.80;;;14.50;85.50;;;;;;5015090;28;20107;-52
2021/06/24 05:34:31;;;;;;;11.77;5.97;;;14.70;82.80;;;;;;5013379;28;20057;-50
2021/06/24 05:36:57;;;;;;;9.45;6.00;;;14.80;82.30;;;;;;5012205;28;20040;-51
2021/06/24 05:39:23;;;;;;;13.18;7.70;;;14.90;82.60;;;;;;5011059;28;20383;-51
2021/06/24 05:41:49;;;;;;;9.18;7.20;;;15.00;81.10;;;;;;5011167;28;20103;-51
2021/06/24 05:44:15;;;;;;;13.80;7.43;;;14.90;80.90;;;;;;5011018;28;20045;-52
2021/06/24 05:46:41;;;;;;;12.07;7.65;;;14.80;82.40;;;;;;5010146;28;20038;-49
2021/06/24 05:49:07;;;;;;;9.98;7.15;;;14.80;82.40;;;;;;5012741;28;20388;-49
2021/06/24 05:51:32;;;;;;;11.70;7.07;;;14.70;82.90;;;;;;5011513;28;20052;-50
2021/06/24 05:53:58;;;;;;;10.18;6.40;;;14.60;82.40;;;;;;4974365;28;20050;-51
2021/06/24 05:56:24;;;;;;;11.73;6.85;;;14.50;82.40;;;;;;5008880;28;20502;-53
2021/06/24 05:58:50;;;;;;;10.60;7.60;;;14.40;82.00;;;;;;5011303;28;20445;-52
2021/06/24 06:01:17;;;;;;;14.95;7.85;;;14.30;83.30;;;;;;5010804;28;20096;-52
2021/06/24 06:03:42;;;;;;;15.95;7.90;;;14.30;83.30;;;;;;5011811;28;20414;-54
2021/06/24 06:06:08;;;;;;;13.27;7.97;;;14.30;84.10;;;;;;5009189;28;20427;-51
2021/06/24 06:08:34;;;;;;;10.85;6.93;;;14.30;83.80;;;;;;4993417;28;20046;-53
2021/06/24 06:11:00;;;;;;;13.35;8.02;;;14.20;84.50;;;;;;4991072;28;20049;-52
2021/06/24 06:13:27;;;;;;;11.50;7.90;;;14.20;84.80;;;;;;5010701;28;20437;-50
2021/06/24 06:15:52;;;;;;;13.52;8.10;;;14.20;84.60;;;;;;5012165;28;20147;-49
2021/06/24 06:18:20;;;;;;;11.75;7.82;;;14.20;84.40;;;;;;5010541;28;20065;-51
2021/06/24 06:20:48;;;;;;;13.18;8.48;;;14.20;84.50;;;;;;5011531;28;20069;-55
2021/06/24 06:23:15;;;;;;;11.82;8.10;;;14.20;84.50;;;;;;4992985;28;20029;-55
2021/06/24 06:25:41;;;;;;;15.63;7.43;;;14.20;84.30;;;;;;5011859;28;20042;-52
2021/06/24 06:28:07;;;;;;;11.32;6.97;;;14.20;84.30;;;;;;5010788;28;20042;-51
2021/06/24 06:30:33;;;;;;;14.82;8.20;;;14.10;85.20;;;;;;5010454;28;20075;-53
2021/06/24 06:33:01;;;;;;;14.27;8.13;;;14.20;84.50;;;;;;5010715;28;20063;-54
2021/06/24 06:35:35;;;;;;;13.82;7.57;;;14.30;82.50;;;;;;5010903;28;20065;-52
2021/06/24 06:38:01;;;;;;;11.93;8.63;;;14.30;83.10;;;;;;5013014;28;20105;-53
2021/06/24 06:40:28;;;;;;;11.73;8.60;;;14.20;83.70;;;;;;4980101;28;20137;-52
2021/06/24 06:42:54;;;;;;;14.80;9.18;;;14.20;83.20;;;;;;5011755;28;20038;-50
2021/06/24 06:45:21;;;;;;;16.48;9.98;;;14.30;83.60;;;;;;5013530;28;20048;-51
2021/06/24 06:47:48;;;;;;;14.88;10.15;;;14.20;83.60;;;;;;5013142;28;20042;-54
2021/06/24 06:50:14;;;;;;;14.05;9.60;;;14.20;84.60;;;;;;5011549;28;20121;-54
2021/06/24 06:52:40;;;;;;;14.90;10.30;;;14.20;84.90;;;;;;5009168;28;20038;-54
2021/06/24 06:55:10;;;;;;;14.55;9.90;;;14.20;84.90;;;;;;5013241;28;20050;-50
2021/06/24 06:57:36;;;;;;;14.95;10.57;;;14.20;84.80;;;;;;5010380;28;20049;-50
2021/06/24 07:00:09;;;;;;;15.48;10.48;;;14.30;84.80;;;;;;4995340;28;20046;-52
2021/06/24 07:02:36;;;;;;;20.35;9.52;;;14.40;84.50;;;;;;5026695;28;20105;-48
2021/06/24 07:05:02;;;;;;;16.13;9.60;;;14.50;84.40;;;;;;4999909;28;20499;-53
2021/06/24 07:07:31;;;;;;;13.52;9.13;;;14.50;82.80;;;;;;5011998;28;20066;-51
2021/06/24 07:09:57;;;;;;;14.00;8.60;;;14.50;83.10;;;;;;5001223;28;20042;-49
2021/06/24 07:12:23;;;;;;;12.65;8.63;;;14.50;83.20;;;;;;5015473;28;20064;-52
2021/06/24 07:14:48;;;;;;;12.55;8.90;;;14.50;83.20;;;;;;5017928;28;20072;-54
2021/06/24 07:17:14;;;;;;;10.38;7.05;;;14.50;83.60;;;;;;5018362;28;20478;-54
2021/06/24 07:19:40;;;;;;;8.27;5.82;;;14.60;82.60;;;;;;4975319;28;20054;-54
2021/06/24 07:22:06;;;;;;;10.93;7.07;;;14.70;79.90;;;;;;5017647;28;20075;-54
2021/06/24 07:24:32;;;;;;;10.77;6.70;;;14.70;79.50;;;;;;5014007;28;20038;-53
2021/06/24 07:26:58;;;;;;;11.70;6.80;;;14.60;80.70;;;;;;5029087;28;20038;-52
2021/06/24 07:29:23;;;;;;;10.60;6.80;;;14.70;80.50;;;;;;5026317;28;20052;-53
2021/06/24 07:31:49;;;;;;;12.45;7.32;;;14.60;81.40;;;;;;4987539;28;20117;-53
2021/06/24 07:34:14;;;;;;;14.38;6.90;;;14.60;81.10;;;;;;5012086;28;20098;-54
2021/06/24 07:36:41;;;;;;;10.48;6.80;;;14.70;81.90;;;;;;5020686;28;20038;-55
2021/06/24 07:39:07;;;;;;;10.95;6.95;;;14.70;81.20;;;;;;5013303;28;20041;-54
2021/06/24 07:41:33;;;;;;;10.30;6.78;;;14.70;81.00;;;;;;5015226;28;20080;-54
2021/06/24 07:43:59;;;;;;;10.02;5.80;;;14.70;82.00;;;;;;5001569;28;20095;-52
2021/06/24 07:46:25;;;;;;;9.02;5.60;;;14.70;81.00;;;;;;5025610;28;20466;-55
2021/06/24 07:48:51;;;;;;;9.70;5.97;;;14.70;79.70;;;;;;5000975;28;20574;-54
2021/06/24 07:51:17;;;;;;;9.48;5.60;;;14.70;80.60;;;;;;5015589;28;20141;-55
2021/06/24 07:53:42;;;;;;;11.05;6.28;;;14.80;79.90;;;;;;5015346;28;20125;-53
2021/06/24 07:56:13;;;;;;;11.02;5.85;;;14.90;80.20;;;;;;5015941;28;20030;-53
2021/06/24 07:58:39;;;;;;;9.45;5.60;;;15.00;79.10;;;;;;5014840;28;20065;-52
2021/06/24 08:01:06;;;;;;;12.02;5.45;;;15.10;79.50;;;;;;5014166;28;20042;-54
2021/06/24 08:03:37;;;;;;;10.32;5.70;;;15.00;80.30;;;;;;5016449;28;20050;-54
2021/06/24 08:06:04;;;;;;;6.80;5.70;;;15.00;81.10;;;;;;5002180;28;20033;-54
2021/06/24 08:08:31;;;;;;;8.13;5.25;;;15.20;77.90;;;;;;5016143;28;20359;-52
2021/06/24 08:10:57;;;;;;;7.72;5.35;;;15.10;78.20;;;;;;5000417;28;20124;-52
2021/06/24 08:13:26;;;;;;;8.52;5.60;;;15.10;79.30;;;;;;5028949;28;20093;-53
2021/06/24 08:15:52;;;;;;;9.10;5.47;;;15.00;79.30;;;;;;5004633;28;20466;-56
2021/06/24 08:18:19;;;;;;;7.13;4.82;;;15.00;79.70;;;;;;5013889;28;20044;-54
2021/06/24 08:20:46;;;;;;;12.38;5.60;;;15.10;78.30;;;;;;5018708;28;20045;-55
2021/06/24 08:23:12;;;;;;;8.82;5.28;;;15.20;78.20;;;;;;5024821;28;20053;-50
2021/06/24 08:25:38;;;;;;;10.20;5.20;;;15.20;77.40;;;;;;4998111;28;20042;-52
2021/06/24 08:28:05;;;;;;;10.35;5.95;;;15.00;78.50;;;;;;4996350;28;20049;-53
2021/06/24 08:30:35;;;;;;;9.45;5.55;;;15.10;78.30;;;;;;5028932;28;20041;-54
2021/06/24 08:33:01;;;;;;;10.55;5.75;;;15.10;79.00;;;;;;5012232;28;20714;-55
2021/06/24 08:35:27;;;;;;;9.80;5.47;;;15.10;79.20;;;;;;5012420;28;20095;-55
2021/06/24 08:37:54;;;;;;;8.27;5.93;;;15.20;77.90;;;;;;5012359;28;20045;-55
2021/06/24 08:40:19;;;;;;;8.07;5.50;;;15.20;78.70;;;;;;5014333;28;20698;-53
2021/06/24 08:42:46;;;;;;;8.25;6.18;;;15.20;79.50;;;;;;5013684;28;20521;-51
2021/06/24 08:45:12;;;;;;;13.02;5.63;;;15.30;78.00;;;;;;5013179;28;20168;-52
2021/06/24 08:47:49;;;;;;;7.60;5.10;;;15.20;78.80;;;;;;5015388;28;20046;-49
2021/06/24 08:50:16;;;;;;;10.68;6.05;;;15.20;79.40;;;;;;5012873;28;20057;-52
2021/06/24 08:52:49;;;;;;;7.50;5.47;;;15.30;77.90;;;;;;5013870;28;20046;-52
2021/06/24 08:55:21;;;;;;;9.10;5.78;;;15.20;78.90;;;;;;5011354;28;20498;-53
2021/06/24 08:57:47;;;;;;;9.57;5.63;;;15.20;79.40;;;;;;5015536;28;20033;-51
2021/06/24 09:00:14;;;;;;;8.25;5.78;;;15.20;79.40;;;;;;5012542;28;20046;-52
2021/06/24 09:02:42;;;;;;;6.85;5.68;;;15.30;78.30;;;;;;4995271;28;20116;-53
2021/06/24 09:05:09;;;;;;;7.35;5.60;;;15.40;77.60;;;;;;5013741;28;20341;-51
2021/06/24 09:07:53;;;;;;;9.27;5.80;;;15.40;78.40;;;;;;5012890;28;20034;-51
2021/06/24 09:10:24;;;;;;;8.77;5.93;;;15.50;78.60;;;;;;5012998;28;20047;-52
2021/06/24 09:12:54;;;;;;;11.70;5.90;;;15.60;76.90;;;;;;5013430;28;20096;-52
2021/06/24 09:15:23;;;;;;;8.90;5.88;;;15.60;77.40;;;;;;4994427;28;20038;-53
2021/06/24 09:17:49;;;;;;;8.82;5.85;;;15.60;77.50;;;;;;5014200;28;20038;-54
2021/06/24 09:20:18;;;;;;;10.02;5.38;;;15.70;77.80;;;;;;5010901;28;20044;-50
2021/06/24 09:23:16;;;;;;;6.82;5.20;;;15.70;78.00;;;;;;4994951;28;20050;-52
2021/06/24 09:25:44;;;;;;;7.53;5.57;;;15.80;77.20;;;;;;5006536;28;20495;-52
2021/06/24 09:28:11;;;;;;;10.85;5.85;;;15.70;76.90;;;;;;4999381;28;20041;-50
2021/06/24 09:30:40;;;;;;;8.07;5.32;;;15.80;77.60;;;;;;5014721;28;20095;-52
2021/06/24 09:33:08;;;;;;;8.68;5.78;;;15.80;77.60;;;;;;5000529;28;20046;-54
2021/06/24 09:35:36;;;;;;;10.68;5.85;;;16.00;76.70;;;;;;5022847;28;20049;-52
2021/06/24 09:38:14;;;;;;;9.60;6.13;;;15.90;76.50;;;;;;5013672;28;20048;-53
2021/06/24 09:40:53;;;;;;;8.20;6.28;;;16.00;76.10;;;;;;5014475;28;20034;-52
2021/06/24 09:43:34;;;;;;;9.90;5.47;;;16.00;76.50;;;;;;4995847;28;20053;-55
2021/06/24 09:46:01;;;;;;;8.38;5.45;;;15.90;76.90;;;;;;5011972;28;20460;-52
2021/06/24 09:48:46;;;;;;;12.45;6.43;;;16.00;77.20;;;;;;4995206;28;20100;-51
2021/06/24 09:51:18;;;;;;;9.93;5.80;;;16.00;77.20;;;;;;5011636;28;20038;-54
2021/06/24 09:53:54;;;;;;;;;;;16.00;77.30;;;;;;5011842;28;20038;-53
2021/06/24 09:56:23;;;;;;;11.23;5.95;;;16.10;77.10;;;;;;5010945;28;19917;-52
2021/06/24 09:58:50;;;;;;;7.63;5.80;;;16.00;76.90;;;;;;5010288;28;20045;-55
2021/06/24 10:01:45;;;;;;;8.63;6.13;;;16.10;77.60;;;;;;5010644;28;20426;-54
2021/06/24 10:04:19;;;;;;;9.38;6.00;;;16.20;77.80;;;;;;5019375;28;20046;-50
2021/06/24 10:06:47;;;;;;;13.88;6.38;;;16.30;76.40;;;;;;4995175;28;20041;-50
2021/06/24 10:09:13;;;;;;;8.65;5.88;;;16.50;74.00;;;;;;5013245;28;20046;-51
2021/06/24 10:11:39;;;;;;;8.75;6.00;;;16.50;73.00;;;;;;5016281;28;20061;-49
2021/06/24 10:14:06;;;;;;;12.57;5.90;;;16.50;74.40;;;;;;5014824;28;20053;-53
2021/06/24 10:16:33;;;;;;;9.95;6.45;;;16.60;74.90;;;;;;5015677;28;20042;-53
2021/06/24 10:19:00;;;;;;;9.30;6.50;;;16.60;74.50;;;;;;5026158;28;20472;-52
2021/06/24 10:21:28;;;;;;;9.45;6.50;;;16.70;72.90;;;;;;4996532;28;20056;-53
2021/06/24 10:24:07;;;;;;;8.90;6.80;;;16.70;73.70;;;;;;5012382;28;20029;-54
2021/06/24 10:26:33;;;;;;;9.40;6.90;;;16.60;73.30;;;;;;4995814;28;20045;-54
2021/06/24 10:29:11;;;;;;;8.63;6.50;;;16.60;74.30;;;;;;4979860;28;20133;-54
2021/06/24 10:31:43;;;;;;;10.73;6.85;;;16.80;74.10;;;;;;5010768;28;20089;-55
2021/06/24 10:34:11;;;;;;;8.88;6.97;;;16.80;73.10;;;;;;4981754;28;20422;-55
2021/06/24 10:36:37;;;;;;;10.98;7.35;;;16.80;72.80;;;;;;5012251;28;20042;-53
2021/06/24 10:39:06;;;;;;;9.38;6.43;;;16.90;72.20;;;;;;5013176;28;20506;-55
2021/06/24 10:41:59;;;;;;;8.93;6.55;;;16.80;73.40;;;;;;5012338;28;20048;-54
2021/06/24 10:45:02;;;;;;;9.75;6.85;;;17.00;72.90;;;;;;5002300;28;20562;-55
2021/06/24 10:47:40;;;;;;;9.65;5.72;;;17.20;71.70;;;;;;5014737;28;20060;-49
2021/06/24 10:50:36;;;;;;;8.52;6.60;;;17.30;72.20;;;;;;5015929;28;20410;-50
2021/06/24 10:53:09;;;;;;;9.75;6.65;;;17.50;69.70;;;;;;5004544;28;20072;-51
2021/06/24 10:55:42;;;;;;;9.73;6.15;;;17.60;70.80;;;;;;5003459;28;20049;-52
2021/06/24 10:58:11;;;;;;;7.45;6.13;;;17.70;71.50;;;;;;4997286;28;20056;-52
2021/06/24 11:00:50;;;;;;;8.77;6.60;;;17.80;71.70;;;;;;5015393;28;20049;-55
2021/06/24 11:03:23;;;;;;;8.82;6.60;;;17.90;67.50;;;;;;5014950;28;20061;-50
2021/06/24 11:05:50;;;;;;;9.50;6.55;;;17.70;69.10;;;;;;5005107;28;20099;-53
2021/06/24 11:08:30;;;;;;;9.32;7.50;;;17.70;67.90;;;;;;5015264;28;20405;-53
2021/06/24 11:11:04;;;;;;;10.07;7.03;;;17.60;68.90;;;;;;5013371;28;20061;-51
2021/06/24 11:13:42;;;;;;;8.52;7.15;;;17.40;70.30;;;;;;5015011;28;20060;-52
2021/06/24 11:16:08;;;;;;;8.77;6.88;;;17.30;71.20;;;;;;5012588;28;20070;-55
2021/06/24 11:18:33;;;;;;;10.48;7.55;;;17.30;70.70;;;;;;4997324;28;20057;-51
2021/06/24 11:21:01;;;;;;;8.88;7.13;;;17.50;70.00;;;;;;5015700;28;20491;-55
2021/06/24 11:23:32;;;;;;;8.85;6.05;;;17.70;70.70;;;;;;4996972;28;20061;-55
2021/06/24 11:26:13;;;;;;;8.00;5.45;;;17.90;71.30;;;;;;4994018;28;20058;-53
2021/06/24 11:28:43;;;;;;;7.65;5.68;;;18.00;70.20;;;;;;4983898;28;20121;-52
2021/06/24 11:31:12;;;;;;;10.68;6.05;;;18.20;68.70;;;;;;5014056;28;20038;-53
2021/06/24 11:33:46;;;;;;;7.20;5.57;;;18.40;68.10;;;;;;5015815;28;20046;-55
2021/06/24 11:36:15;;;;;;;8.95;5.07;;;18.50;68.80;;;;;;5016431;28;20463;-52
2021/06/24 11:38:50;;;;;;;8.18;6.05;;;18.60;68.60;;;;;;5015892;28;20061;-54
2021/06/24 11:41:21;;;;;;;9.75;7.38;;;18.80;66.90;;;;;;4998344;28;20046;-53
2021/06/24 11:44:00;;;;;;;8.77;6.05;;;18.80;64.10;;;;;;4998259;28;20070;-51
2021/06/24 11:46:28;;;;;;;9.68;6.75;;;18.80;67.00;;;;;;5014253;28;20038;-51
2021/06/24 11:49:13;;;;;;;9.82;7.03;;;18.70;65.30;;;;;;4998898;28;20125;-52
2021/06/24 12:05:09;;;;;;;9.70;6.75;;;18.20;70.40;;;;;;5014926;28;20061;-53
2021/06/24 12:07:36;;;;;;;7.03;5.97;;;18.30;70.50;;;;;;5015595;28;20068;-50
2021/06/24 12:10:04;;;;;;;9.98;5.70;;;18.50;70.40;;;;;;5015051;28;20045;-51
2021/06/24 12:12:32;;;;;;;7.88;4.75;;;18.50;70.90;;;;;;5016903;28;20069;-52
2021/06/24 12:15:01;;;;;;;7.32;5.10;;;18.50;71.00;;;;;;5015276;28;20038;-51
2021/06/24 12:17:35;;;;;;;8.32;5.55;;;18.50;70.50;;;;;;5014013;28;20560;-49
2021/06/24 12:20:03;;;;;;;6.57;5.15;;;18.50;70.90;;;;;;4997731;28;20140;-49
2021/06/24 12:22:36;;;;;;;8.27;4.90;;;18.40;69.80;;;;;;5015753;28;20069;-50
2021/06/24 12:25:05;;;;;;;6.50;4.97;;;18.40;69.40;;;;;;4995483;28;20252;-53
2021/06/24 12:27:37;;;;;;;7.38;5.40;;;18.20;69.60;;;;;;4994910;28;20050;-50
2021/06/24 12:30:11;;;;;;;7.28;4.78;;;18.20;69.90;;;;;;4994077;28;20525;-53
2021/06/24 12:32:44;;;;;;;7.45;4.90;;;18.10;69.50;;;;;;4995796;28;20050;-52
2021/06/24 12:35:10;;;;;;;9.02;5.00;;;18.10;70.10;;;;;;5024173;28;20133;-51
2021/06/24 12:37:43;;;;;;;9.35;4.63;;;18.30;70.90;;;;;;4995340;28;20093;-51
2021/06/24 12:40:15;;;;;;;7.05;4.68;;;18.50;70.50;;;;;;4963461;28;20395;-51
2021/06/24 12:42:44;;;;;;;7.80;4.97;;;18.50;70.30;;;;;;5012987;28;20046;-49
2021/06/24 12:45:12;;;;;;;7.97;4.78;;;18.60;68.50;;;;;;4978475;28;20076;-51
2021/06/24 12:47:45;;;;;;;6.65;5.10;;;18.70;68.90;;;;;;5012755;28;20479;-51
2021/06/24 12:50:14;;;;;;;8.80;5.22;;;18.70;68.30;;;;;;5012276;28;20094;-51
2021/06/24 12:52:48;;;;;;;7.45;5.35;;;18.70;67.90;;;;;;5013595;28;20065;-50
2021/06/24 12:55:36;;;;;;;8.82;5.80;;;18.70;68.30;;;;;;4980315;28;20038;-49
2021/06/24 12:58:07;;;;;;;7.32;5.95;;;18.60;66.60;;;;;;4997673;28;20069;-52
2021/06/24 13:00:35;;;;;;;7.90;5.70;;;18.60;68.00;;;;;;5013998;28;20337;-51
2021/06/24 13:03:01;;;;;;;7.32;5.22;;;18.50;68.00;;;;;;5013333;28;20038;-52